createdAt,value
2023-01-19T00:01:26.806Z,99579.22
2023-01-19T00:03:53.917Z,99586.84
2023-01-19T00:06:21.135Z,99593.81
2023-01-19T00:08:50.120Z,99598.75
2023-01-19T00:11:20.071Z,99592.03
2023-01-19T00:13:50.461Z,99603.53
2023-01-19T00:16:21.573Z,99599.69
2023-01-19T00:18:51.970Z,99600.06
2023-01-19T00:21:21.621Z,99597.50
2023-01-19T00:23:51.011Z,99599.41
2023-01-19T00:26:18.865Z,99598.34
2023-01-19T00:28:46.204Z,99602.75
2023-01-19T00:31:13.363Z,99600.38
2023-01-19T00:33:41.181Z,99596.97
2023-01-19T00:36:09.117Z,99600.72
2023-01-19T00:38:36.242Z,99594.94
2023-01-19T00:41:03.570Z,99604.38
2023-01-19T00:43:30.688Z,99590.81
2023-01-19T00:45:57.846Z,99594.13
2023-01-19T00:48:24.996Z,99594.94
2023-01-19T00:50:52.111Z,99597.44
2023-01-19T00:53:19.278Z,99597.69
2023-01-19T00:55:46.433Z,99596.94
2023-01-19T00:58:13.559Z,99596.34
2023-01-19T01:00:40.737Z,99594.38
2023-01-19T01:03:08.178Z,99590.97
2023-01-19T01:05:35.356Z,99599.50
2023-01-19T01:08:02.494Z,99608.59
2023-01-19T01:10:29.877Z,99597.25
2023-01-19T01:12:59.094Z,99604.88
2023-01-19T01:15:28.246Z,99600.88
2023-01-19T01:17:56.664Z,99597.22
2023-01-19T01:20:28.576Z,99594.53
2023-01-19T01:22:57.157Z,99604.75
2023-01-19T01:25:26.712Z,99614.44
2023-01-19T01:27:54.896Z,99619.25
2023-01-19T01:30:23.097Z,99603.91
2023-01-19T01:32:50.384Z,99611.78
2023-01-19T01:35:17.991Z,99605.13
2023-01-19T01:37:45.095Z,99612.59
2023-01-19T01:40:16.608Z,99606.72
2023-01-19T01:42:45.173Z,99605.78
2023-01-19T01:45:30.761Z,99605.78
2023-01-19T01:48:10.483Z,99600.13
2023-01-19T01:51:08.829Z,99611.97
2023-01-19T01:53:39.189Z,99602.31
2023-01-19T01:56:15.611Z,99606.19
2023-01-19T01:58:44.007Z,99597.09
2023-01-19T02:01:29.675Z,99606.34
2023-01-19T02:03:58.804Z,99599.50
2023-01-19T02:06:26.861Z,99590.13
2023-01-19T02:09:27.000Z,99605.38
2023-01-19T02:12:13.804Z,99598.81
2023-01-19T02:14:40.974Z,99596.03
2023-01-19T02:17:08.109Z,99600.97
2023-01-19T02:19:43.234Z,99600.13
2023-01-19T02:22:24.628Z,99593.09
2023-01-19T02:24:52.783Z,99587.25
2023-01-19T02:27:20.700Z,99581.09
2023-01-19T02:29:48.017Z,99584.47
2023-01-19T02:32:15.242Z,99583.81
2023-01-19T02:34:42.459Z,99593.28
2023-01-19T02:37:16.938Z,99586.28
2023-01-19T02:39:51.321Z,99589.41
2023-01-19T02:42:27.154Z,99579.97
2023-01-19T02:44:56.801Z,99576.44
2023-01-19T02:47:24.577Z,99580.44
2023-01-19T02:49:57.158Z,99599.09
2023-01-19T02:52:25.717Z,99591.59
2023-01-19T02:55:15.295Z,99582.59
2023-01-19T02:58:09.854Z,99594.22
2023-01-19T03:00:53.201Z,99583.25
2023-01-19T03:03:39.316Z,99586.50
2023-01-19T03:06:33.854Z,99591.53
2023-01-19T03:09:23.996Z,99589.31
2023-01-19T03:12:04.603Z,99584.38
2023-01-19T03:14:38.641Z,99594.63
2023-01-19T03:17:09.474Z,99582.72
2023-01-19T03:19:41.666Z,99581.19
2023-01-19T03:22:22.816Z,99582.66
2023-01-19T03:24:54.369Z,99579.47
2023-01-19T03:27:28.246Z,99584.63
2023-01-19T03:30:01.452Z,99594.97
2023-01-19T03:32:43.507Z,99579.88
2023-01-19T03:35:16.990Z,99572.06
2023-01-19T03:37:47.736Z,99588.91
2023-01-19T03:40:15.144Z,99583.97
2023-01-19T03:42:44.363Z,99580.31
2023-01-19T03:45:14.180Z,99585.44
2023-01-19T03:47:41.889Z,99584.03
2023-01-19T03:50:20.767Z,99589.50
2023-01-19T03:53:17.390Z,99596.84
2023-01-19T03:55:48.360Z,99590.28
2023-01-19T03:58:15.593Z,99598.75
2023-01-19T04:00:42.757Z,99598.03
2023-01-19T04:03:15.658Z,99602.19
2023-01-19T04:05:43.258Z,99596.13
2023-01-19T04:08:11.843Z,99601.63
2023-01-19T04:10:39.463Z,99599.91
2023-01-19T04:13:06.776Z,99586.09
2023-01-19T04:15:34.081Z,99589.31
2023-01-19T04:18:01.405Z,99595.72
2023-01-19T04:20:29.189Z,99596.19
2023-01-19T04:23:01.441Z,99598.97
2023-01-19T04:25:29.227Z,99588.91
2023-01-19T04:27:58.289Z,99594.84
2023-01-19T04:30:27.395Z,99598.75
2023-01-19T04:32:55.474Z,99594.59
2023-01-19T04:35:23.544Z,99597.03
2023-01-19T04:37:50.990Z,99592.34
2023-01-19T04:40:18.247Z,99593.09
2023-01-19T04:42:46.480Z,99588.91
2023-01-19T04:45:14.446Z,99596.59
2023-01-19T04:47:42.637Z,99594.69
2023-01-19T04:50:11.394Z,99591.69
2023-01-19T04:52:39.342Z,99602.03
2023-01-19T04:55:07.688Z,99587.53
2023-01-19T04:57:35.099Z,99596.34
2023-01-19T05:00:02.961Z,99587.84
2023-01-19T05:02:30.151Z,99589.16
2023-01-19T05:04:57.280Z,99592.09
2023-01-19T05:07:24.456Z,99586.13
2023-01-19T05:09:51.685Z,99599.00
2023-01-19T05:12:18.871Z,99593.34
2023-01-19T05:14:46.181Z,99592.34
2023-01-19T05:17:13.706Z,99584.47
2023-01-19T05:19:40.907Z,99582.19
2023-01-19T05:22:08.143Z,99579.91
2023-01-19T05:24:35.404Z,99583.59
2023-01-19T05:27:02.610Z,99589.97
2023-01-19T05:29:29.733Z,99580.56
2023-01-19T05:31:57.133Z,99590.22
2023-01-19T05:34:24.553Z,99586.63
2023-01-19T05:36:51.743Z,99580.19
2023-01-19T05:39:19.166Z,99582.88
2023-01-19T05:41:46.489Z,99585.88
2023-01-19T05:44:14.116Z,99578.22
2023-01-19T05:46:41.381Z,99583.50
2023-01-19T05:49:08.952Z,99586.94
2023-01-19T05:51:38.383Z,99589.00
2023-01-19T05:54:07.438Z,99589.00
2023-01-19T05:56:35.773Z,99598.19
2023-01-19T05:59:02.969Z,99590.47
2023-01-19T06:01:30.178Z,99590.22
2023-01-19T06:03:57.355Z,99587.19
2023-01-19T06:06:24.579Z,99587.28
2023-01-19T06:08:51.724Z,99602.53
2023-01-19T06:11:18.916Z,99594.97
2023-01-19T06:13:47.348Z,99602.94
2023-01-19T06:16:14.642Z,99586.75
2023-01-19T06:18:41.927Z,99599.06
2023-01-19T06:21:12.312Z,99596.59
2023-01-19T06:23:39.828Z,99605.72
2023-01-19T06:26:07.089Z,99601.31
2023-01-19T06:28:34.426Z,99608.06
2023-01-19T06:31:01.986Z,99613.22
2023-01-19T06:33:29.229Z,99608.34
2023-01-19T06:35:56.604Z,99618.56
2023-01-19T06:38:23.841Z,99620.28
2023-01-19T06:41:00.008Z,99620.44
2023-01-19T06:43:27.253Z,99620.50
2023-01-19T06:45:55.001Z,99621.41
2023-01-19T06:48:22.377Z,99629.84
2023-01-19T06:50:49.652Z,99624.63
2023-01-19T06:53:17.679Z,99629.22
2023-01-19T06:55:44.843Z,99627.09
2023-01-19T06:58:12.741Z,99634.81
2023-01-19T07:00:39.965Z,99633.34
2023-01-19T07:03:08.028Z,99645.91
2023-01-19T07:05:36.339Z,99642.28
2023-01-19T07:08:04.293Z,99645.47
2023-01-19T07:11:26.597Z,99645.91
2023-01-19T07:13:19.121Z,99651.97
2023-01-19T07:15:46.325Z,99653.59
2023-01-19T07:18:13.467Z,99670.75
2023-01-19T07:20:40.721Z,99662.41
2023-01-19T07:23:07.890Z,99666.41
2023-01-19T07:25:35.077Z,99662.13
2023-01-19T07:28:03.522Z,99669.31
2023-01-19T07:30:30.701Z,99678.06
2023-01-19T07:32:58.928Z,99683.34
2023-01-19T07:35:26.302Z,99681.38
2023-01-19T07:37:53.452Z,99686.38
2023-01-19T07:40:22.156Z,99689.06
2023-01-19T07:42:51.975Z,99691.63
2023-01-19T07:45:21.114Z,99689.72
2023-01-19T07:47:49.923Z,99691.44
2023-01-19T07:50:21.225Z,99693.91
2023-01-19T07:52:53.361Z,99690.00
2023-01-19T07:55:21.226Z,99692.00
2023-01-19T07:57:53.506Z,99700.91
2023-01-19T08:00:24.587Z,99696.66
2023-01-19T08:02:53.704Z,99694.47
2023-01-19T08:05:21.191Z,99699.22
2023-01-19T08:07:48.382Z,99710.59
2023-01-19T08:10:17.353Z,99706.06
2023-01-19T08:12:44.541Z,99704.72
2023-01-19T08:15:11.894Z,99711.00
2023-01-19T08:17:39.099Z,99709.75
2023-01-19T08:20:08.590Z,99696.06
2023-01-19T08:22:35.735Z,99699.78
2023-01-19T08:25:03.937Z,99699.31
2023-01-19T08:27:31.282Z,99687.75
2023-01-19T08:29:58.848Z,99686.81
2023-01-19T08:32:26.119Z,99701.88
2023-01-19T08:34:53.272Z,99693.06
2023-01-19T08:37:20.413Z,99701.22
2023-01-19T08:39:47.542Z,99697.31
2023-01-19T08:42:14.684Z,99701.03
2023-01-19T08:44:57.009Z,99701.50
2023-01-19T08:47:25.122Z,99702.81
2023-01-19T08:49:52.344Z,99712.41
2023-01-19T08:52:19.485Z,99710.19
2023-01-19T08:54:46.733Z,99718.75
2023-01-19T08:57:14.597Z,99703.69
2023-01-19T08:59:41.781Z,99691.47
2023-01-19T09:02:10.917Z,99697.97
2023-01-19T09:04:38.222Z,99703.91
2023-01-19T09:09:33.443Z,99716.25
2023-01-19T09:12:00.686Z,99717.38
2023-01-19T09:14:27.812Z,99717.88
2023-01-19T09:16:56.123Z,99720.84
2023-01-19T09:19:23.253Z,99721.75
2023-01-19T09:21:50.894Z,99721.09
2023-01-19T09:24:18.008Z,99728.81
2023-01-19T09:26:45.121Z,99724.31
2023-01-19T09:29:12.266Z,99725.84
2023-01-19T09:31:40.150Z,99727.81
2023-01-19T09:34:07.418Z,99731.28
2023-01-19T09:36:36.519Z,99730.34
2023-01-19T09:39:04.183Z,99728.16
2023-01-19T09:41:35.997Z,99734.75
2023-01-19T09:44:04.490Z,99742.75
2023-01-19T09:46:41.551Z,99733.91
2023-01-19T09:49:16.735Z,99741.56
2023-01-19T09:51:48.647Z,99731.09
2023-01-19T09:54:18.287Z,99730.34
2023-01-19T09:56:50.667Z,99741.44
2023-01-19T09:59:27.890Z,99736.63
2023-01-19T10:02:31.864Z,99737.63
2023-01-19T10:05:12.159Z,99730.28
2023-01-19T10:08:13.382Z,99737.41
2023-01-19T10:10:47.858Z,99735.78
2023-01-19T10:13:46.995Z,99741.59
2023-01-19T10:16:49.476Z,99735.78
2023-01-19T10:19:46.715Z,99738.50
2023-01-19T10:22:25.045Z,99740.34
2023-01-19T10:25:00.528Z,99731.50
2023-01-19T10:27:34.453Z,99737.91
2023-01-19T10:30:02.161Z,99737.28
2023-01-19T10:32:35.784Z,99738.22
2023-01-19T10:35:21.776Z,99734.31
2023-01-19T10:37:50.005Z,99729.09
2023-01-19T10:40:34.678Z,99729.69
2023-01-19T10:43:22.967Z,99726.47
2023-01-19T10:45:50.694Z,99738.03
2023-01-19T10:48:17.880Z,99731.28
2023-01-19T10:50:45.045Z,99734.78
2023-01-19T10:53:22.560Z,99730.00
2023-01-19T10:56:15.263Z,99724.75
2023-01-19T10:58:42.503Z,99729.41
2023-01-19T11:01:25.165Z,99727.38
2023-01-19T11:03:54.327Z,99724.84
2023-01-19T11:06:29.255Z,99734.63
2023-01-19T11:09:19.886Z,99729.69
2023-01-19T11:11:51.629Z,99728.06
2023-01-19T11:14:24.418Z,99727.97
2023-01-19T11:16:55.634Z,99735.00
2023-01-19T11:19:33.820Z,99731.72
2023-01-19T11:22:22.654Z,99744.31
2023-01-19T11:24:50.352Z,99746.72
2023-01-19T11:27:20.768Z,99744.66
2023-01-19T11:30:17.413Z,99755.00
2023-01-19T11:32:46.617Z,99745.50
2023-01-19T11:35:40.649Z,99748.34
2023-01-19T11:38:18.292Z,99750.00
2023-01-19T11:40:58.310Z,99753.19
2023-01-19T11:43:43.303Z,99752.91
2023-01-19T11:46:15.949Z,99750.69
2023-01-19T11:48:56.531Z,99749.41
2023-01-19T11:51:30.016Z,99752.56
2023-01-19T11:53:57.329Z,99756.16
2023-01-19T11:56:29.231Z,99753.22
2023-01-19T11:58:56.758Z,99746.91
2023-01-19T12:01:34.859Z,99751.63
2023-01-19T12:04:14.154Z,99755.69
2023-01-19T12:06:47.786Z,99751.56
2023-01-19T12:09:24.140Z,99754.34
2023-01-19T12:12:06.334Z,99751.03
2023-01-19T12:14:58.219Z,99753.72
2023-01-19T12:17:33.993Z,99757.41
2023-01-19T12:20:16.229Z,99758.28
2023-01-19T12:22:55.277Z,99765.13
2023-01-19T12:25:44.325Z,99760.34
2023-01-19T12:28:16.565Z,99759.22
2023-01-19T12:30:44.557Z,99764.84
2023-01-19T12:33:40.556Z,99769.00
2023-01-19T12:36:16.522Z,99771.41
2023-01-19T12:39:19.520Z,99767.75
2023-01-19T12:41:48.499Z,99769.09
2023-01-19T12:44:23.071Z,99771.66
2023-01-19T12:47:16.800Z,99770.81
2023-01-19T12:49:51.489Z,99783.16
2023-01-19T12:52:47.676Z,99773.28
2023-01-19T12:55:14.930Z,99777.63
2023-01-19T12:57:55.673Z,99782.66
2023-01-19T13:00:22.694Z,99782.56
2023-01-19T13:02:56.597Z,99786.16
2023-01-19T13:05:33.403Z,99779.13
2023-01-19T13:08:14.882Z,99790.91
2023-01-19T13:11:01.846Z,99789.19
2023-01-19T13:13:57.956Z,99790.91
2023-01-19T13:16:27.813Z,99788.69
2023-01-19T13:19:01.554Z,99796.19
2023-01-19T13:21:39.044Z,99786.31
2023-01-19T13:24:15.735Z,99788.19
2023-01-19T13:26:48.803Z,99792.38
2023-01-19T13:29:26.379Z,99788.69
2023-01-19T13:31:56.118Z,99802.88
2023-01-19T13:34:27.738Z,99803.53
2023-01-19T13:36:59.170Z,99803.56
2023-01-19T13:39:37.030Z,99818.97
2023-01-19T13:42:13.497Z,99822.69
2023-01-19T13:44:47.082Z,99822.88
2023-01-19T13:47:22.788Z,99830.53
2023-01-19T13:49:58.071Z,99829.28
2023-01-19T13:52:29.952Z,99834.53
2023-01-19T13:55:05.504Z,99834.63
2023-01-19T13:57:47.666Z,99833.66
2023-01-19T14:00:23.679Z,99847.84
2023-01-19T14:03:16.333Z,99855.94
2023-01-19T14:05:44.796Z,99864.19
2023-01-19T14:08:18.004Z,99864.38
2023-01-19T14:10:54.065Z,99867.63
2023-01-19T14:13:27.179Z,99873.41
2023-01-19T14:16:04.382Z,99871.69
2023-01-19T14:18:36.289Z,99877.03
2023-01-19T14:21:07.492Z,99877.03
2023-01-19T14:23:45.264Z,99875.78
2023-01-19T14:26:37.062Z,99877.09
2023-01-19T14:29:10.126Z,99883.94
2023-01-19T14:31:51.712Z,99887.56
2023-01-19T14:34:35.804Z,99885.66
2023-01-19T14:37:25.128Z,99884.16
2023-01-19T14:40:08.822Z,99890.22
2023-01-19T14:42:45.405Z,99889.63
2023-01-19T14:45:30.264Z,99893.25
2023-01-19T14:48:20.425Z,99896.94
2023-01-19T14:51:02.896Z,99911.88
2023-01-19T14:53:37.372Z,99904.34
2023-01-19T14:56:05.896Z,99908.53
2023-01-19T14:58:35.465Z,99914.06
2023-01-19T15:01:04.071Z,99917.94
2023-01-19T15:03:43.685Z,99912.25
2023-01-19T15:06:21.203Z,99914.53
2023-01-19T15:08:50.019Z,99912.91
2023-01-19T15:11:35.746Z,99923.75
2023-01-19T15:14:03.196Z,99928.41
2023-01-19T15:16:34.360Z,99929.34
2023-01-19T15:19:01.557Z,99938.84
2023-01-19T15:21:46.178Z,99942.63
2023-01-19T15:24:15.843Z,99952.72
2023-01-19T15:26:44.286Z,99944.84
2023-01-19T15:29:26.548Z,99951.69
2023-01-19T15:31:53.805Z,99960.22
2023-01-19T15:34:20.991Z,99962.03
2023-01-19T15:36:48.183Z,99964.50
2023-01-19T15:39:15.365Z,99971.75
2023-01-19T15:41:43.151Z,99973.63
2023-01-19T15:44:13.267Z,99973.81
2023-01-19T15:46:40.775Z,99976.06
2023-01-19T15:49:08.010Z,99987.97
2023-01-19T15:51:35.651Z,99994.81
2023-01-19T15:54:03.520Z,99990.53
2023-01-19T15:56:32.149Z,99983.97
2023-01-19T15:58:59.889Z,99993.09
2023-01-19T16:01:33.020Z,99997.59
2023-01-19T16:04:05.539Z,99999.44
2023-01-19T16:06:34.071Z,100000.16
2023-01-19T16:09:05.376Z,100015.41
2023-01-19T16:11:35.125Z,100014.59
2023-01-19T16:14:02.455Z,100008.22
2023-01-19T16:16:29.926Z,100019.69
2023-01-19T16:18:57.798Z,100022.06
2023-01-19T16:21:25.204Z,100019.00
2023-01-19T16:23:52.935Z,100021.19
2023-01-19T16:26:34.176Z,100030.88
2023-01-19T16:29:10.319Z,100030.22
2023-01-19T16:31:39.389Z,100025.66
2023-01-19T16:34:07.483Z,100031.25
2023-01-19T16:36:37.923Z,100044.56
2023-01-19T16:39:10.494Z,100032.19
2023-01-19T16:41:38.060Z,100046.34
2023-01-19T16:44:06.569Z,100043.31
2023-01-19T16:46:38.686Z,100048.97
2023-01-19T16:49:19.394Z,100048.06
2023-01-19T16:51:47.696Z,100044.44
2023-01-19T16:54:21.686Z,100049.63
2023-01-19T16:56:49.956Z,100048.41
2023-01-19T16:59:18.294Z,100046.06
2023-01-19T17:01:45.896Z,100051.66
2023-01-19T17:04:14.257Z,100055.72
2023-01-19T17:06:41.627Z,100056.97
2023-01-19T17:09:09.528Z,100056.13
2023-01-19T17:11:37.774Z,100064.31
2023-01-19T17:14:11.810Z,100068.03
2023-01-19T17:16:39.591Z,100063.81
2023-01-19T17:19:08.595Z,100069.59
2023-01-19T17:21:35.782Z,100070.16
2023-01-19T17:24:03.033Z,100064.38
2023-01-19T17:26:31.104Z,100062.44
2023-01-19T17:29:04.701Z,100076.41
2023-01-19T17:31:33.300Z,100073.38
2023-01-19T17:34:01.160Z,100086.28
2023-01-19T17:36:31.274Z,100091.75
2023-01-19T17:39:04.991Z,100090.13
2023-01-19T17:41:35.085Z,100084.97
2023-01-19T17:44:05.629Z,100091.84
2023-01-19T17:46:37.162Z,100097.53
2023-01-19T17:49:07.350Z,100103.69
2023-01-19T17:51:34.835Z,100105.59
2023-01-19T17:54:04.068Z,100113.53
2023-01-19T17:56:36.577Z,100115.25
2023-01-19T17:59:07.555Z,100108.38
2023-01-19T18:01:39.822Z,100113.22
2023-01-19T18:04:08.759Z,100112.72
2023-01-19T18:06:37.406Z,100113.34
2023-01-19T18:09:07.260Z,100125.06
2023-01-19T18:11:35.173Z,100117.13
2023-01-19T18:14:02.359Z,100124.94
2023-01-19T18:16:30.428Z,100124.19
2023-01-19T18:18:58.128Z,100130.19
2023-01-19T18:21:28.726Z,100132.75
2023-01-19T18:24:05.296Z,100134.28
2023-01-19T18:26:35.304Z,100131.50
2023-01-19T18:29:02.516Z,100145.22
2023-01-19T18:31:30.226Z,100140.63
2023-01-19T18:33:57.885Z,100136.63
2023-01-19T18:36:25.340Z,100142.66
2023-01-19T18:38:52.723Z,100147.78
2023-01-19T18:41:21.859Z,100146.09
2023-01-19T18:43:49.336Z,100152.53
2023-01-19T18:46:16.820Z,100148.44
2023-01-19T18:48:44.271Z,100147.16
2023-01-19T18:51:14.260Z,100151.25
2023-01-19T18:53:42.428Z,100156.38
2023-01-19T18:56:13.247Z,100161.09
2023-01-19T18:58:40.741Z,100162.72
2023-01-19T19:01:32.435Z,100165.84
2023-01-19T19:04:01.108Z,100164.75
2023-01-19T19:06:28.372Z,100161.53
2023-01-19T19:08:59.064Z,100169.69
2023-01-19T19:11:27.631Z,100167.44
2023-01-19T19:13:58.616Z,100172.16
2023-01-19T19:16:26.749Z,100171.06
2023-01-19T19:18:54.105Z,100173.34
2023-01-19T19:21:25.114Z,100183.06
2023-01-19T19:23:55.611Z,100185.25
2023-01-19T19:26:24.765Z,100185.34
2023-01-19T19:28:51.969Z,100193.69
2023-01-19T19:31:22.678Z,100195.41
2023-01-19T19:33:51.003Z,100191.44
2023-01-19T19:36:20.624Z,100196.16
2023-01-19T19:38:51.029Z,100199.25
2023-01-19T19:41:25.028Z,100202.94
2023-01-19T19:43:52.984Z,100206.25
2023-01-19T19:46:21.956Z,100201.63
2023-01-19T19:48:49.582Z,100208.91
2023-01-19T19:51:25.319Z,100206.34
2023-01-19T19:53:58.962Z,100216.72
2023-01-19T19:56:29.696Z,100212.13
2023-01-19T19:58:59.297Z,100221.75
2023-01-19T20:01:32.800Z,100221.44
2023-01-19T20:04:10.552Z,100227.34
2023-01-19T20:06:44.574Z,100231.72
2023-01-19T20:09:13.911Z,100235.03
2023-01-19T20:11:42.988Z,100229.34
2023-01-19T20:14:12.816Z,100238.00
2023-01-19T20:16:40.127Z,100246.47
2023-01-19T20:19:07.996Z,100249.69
2023-01-19T20:21:38.313Z,100248.88
2023-01-19T20:24:10.471Z,100254.13
2023-01-19T20:26:42.776Z,100258.81
2023-01-19T20:29:11.005Z,100254.75
2023-01-19T20:31:51.526Z,100267.31
2023-01-19T20:34:22.551Z,100280.59
2023-01-19T20:36:51.520Z,100282.66
2023-01-19T20:39:20.655Z,100288.13
2023-01-19T20:41:50.854Z,100277.16
2023-01-19T20:44:24.039Z,100289.34
2023-01-19T20:46:52.956Z,100287.44
2023-01-19T20:49:21.128Z,100293.19
2023-01-19T20:51:49.890Z,100300.19
2023-01-19T20:54:20.070Z,100296.59
2023-01-19T20:56:47.369Z,100301.47
2023-01-19T20:59:14.738Z,100302.78
2023-01-19T21:01:43.333Z,100300.78
2023-01-19T21:04:12.019Z,100297.81
2023-01-19T21:06:39.710Z,100309.25
2023-01-19T21:09:09.252Z,100307.78
2023-01-19T21:11:38.209Z,100309.47
2023-01-19T21:14:06.561Z,100313.06
2023-01-19T21:16:35.576Z,100319.53
2023-01-19T21:19:04.294Z,100319.25
2023-01-19T21:21:32.179Z,100321.50
2023-01-19T21:24:03.610Z,100329.09
2023-01-19T21:26:31.480Z,100327.50
2023-01-19T21:29:00.765Z,100338.97
2023-01-19T21:31:28.835Z,100331.91
2023-01-19T21:33:59.109Z,100332.78
2023-01-19T21:36:26.798Z,100343.09
2023-01-19T21:39:00.048Z,100339.59
2023-01-19T21:41:29.748Z,100341.59
2023-01-19T21:43:58.365Z,100337.13
2023-01-19T21:46:29.042Z,100342.28
2023-01-19T21:49:03.179Z,100342.34
2023-01-19T21:51:33.665Z,100347.16
2023-01-19T21:54:06.662Z,100355.41
2023-01-19T21:56:34.576Z,100350.34
2023-01-19T21:59:04.221Z,100361.03
2023-01-19T22:01:33.220Z,100364.03
2023-01-19T22:04:00.628Z,100364.25
2023-01-19T22:06:28.290Z,100371.28
2023-01-19T22:08:57.750Z,100366.91
2023-01-19T22:11:25.126Z,100367.69
2023-01-19T22:13:53.251Z,100375.47
2023-01-19T22:16:22.992Z,100376.41
2023-01-19T22:18:59.275Z,100380.63
2023-01-19T22:21:35.765Z,100383.84
2023-01-19T22:24:04.835Z,100385.16
2023-01-19T22:26:34.022Z,100384.84
2023-01-19T22:29:03.794Z,100387.03
2023-01-19T22:31:31.720Z,100385.31
2023-01-19T22:33:59.005Z,100390.09
2023-01-19T22:36:30.352Z,100387.31
2023-01-19T22:39:00.585Z,100384.63
2023-01-19T22:41:30.524Z,100391.06
2023-01-19T22:44:01.658Z,100394.66
2023-01-19T22:46:33.063Z,100403.84
2023-01-19T22:49:00.832Z,100403.94
2023-01-19T22:51:30.364Z,100401.81
2023-01-19T22:53:58.191Z,100405.97
2023-01-19T22:56:28.691Z,100407.69
2023-01-19T22:58:56.591Z,100404.47
2023-01-19T23:01:36.197Z,100411.28
2023-01-19T23:04:05.835Z,100415.19
2023-01-19T23:06:36.347Z,100415.41
2023-01-19T23:09:08.347Z,100415.81
2023-01-19T23:11:39.888Z,100432.97
2023-01-19T23:14:11.951Z,100430.22
2023-01-19T23:16:39.073Z,100432.72
2023-01-19T23:19:06.311Z,100423.56
2023-01-19T23:21:33.768Z,100430.25
2023-01-19T23:24:04.261Z,100428.03
2023-01-19T23:26:37.759Z,100439.38
2023-01-19T23:29:13.948Z,100434.53
2023-01-19T23:31:49.666Z,100440.22
2023-01-19T23:34:17.413Z,100445.75
2023-01-19T23:36:44.997Z,100445.81
2023-01-19T23:39:22.127Z,100441.91
2023-01-19T23:41:50.313Z,100453.19
2023-01-19T23:44:19.411Z,100453.94
2023-01-19T23:46:47.167Z,100453.97
2023-01-19T23:49:14.429Z,100450.09
2023-01-19T23:51:42.162Z,100457.63
2023-01-19T23:54:09.372Z,100459.63
2023-01-19T23:56:37.607Z,100467.00
2023-01-19T23:59:08.851Z,100459.88
